Time;durP1;ratioP1;P1;durP2;ratioP2;P2;SDS_P1;SDS_P2;PMS_P1;PMS_P2;Temp;Humidity;BMP_temperature;BMP_pressure;BME280_temperature;BME280_humidity;BME280_pressure;Samples;Min_cycle;Max_cycle;Signal;HPM_P1;HPM_P2
2021/11/10 00:00:14;;;;;;;12.30;7.38;;;6.60;99.90;;;;;;4896778;29;20016;-86
2021/11/10 00:02:41;;;;;;;9.77;7.07;;;6.60;99.90;;;;;;4897525;29;20117;-87
2021/11/10 00:05:07;;;;;;;10.05;7.22;;;6.60;99.90;;;;;;4896010;29;20376;-87
2021/11/10 00:07:33;;;;;;;9.88;7.05;;;6.50;99.90;;;;;;4897224;29;20033;-84
2021/11/10 00:09:59;;;;;;;11.02;7.32;;;6.50;99.90;;;;;;4896029;29;20025;-86
2021/11/10 00:12:24;;;;;;;14.52;7.63;;;6.50;99.90;;;;;;4896530;29;20067;-84
2021/11/10 00:14:50;;;;;;;12.88;7.35;;;6.40;99.90;;;;;;4896682;29;20028;-86
2021/11/10 00:17:16;;;;;;;13.65;7.60;;;6.40;99.90;;;;;;4897003;29;20123;-86
2021/11/10 00:19:42;;;;;;;7.57;6.57;;;6.40;99.90;;;;;;4896349;29;20052;-85
2021/11/10 00:22:07;;;;;;;10.52;7.55;;;6.40;99.90;;;;;;4895107;29;20033;-87
2021/11/10 00:24:33;;;;;;;11.88;7.43;;;6.40;99.90;;;;;;4897686;29;20052;-87
2021/11/10 00:26:59;;;;;;;8.80;6.78;;;6.30;99.90;;;;;;4895594;29;20037;-86
2021/11/10 00:29:24;;;;;;;10.52;7.25;;;6.30;99.90;;;;;;4896962;29;20029;-83
2021/11/10 00:31:50;;;;;;;10.52;6.90;;;6.30;99.90;;;;;;4896368;29;20107;-85
2021/11/10 00:34:16;;;;;;;8.82;7.22;;;6.30;99.90;;;;;;4895189;29;20395;-86
2021/11/10 00:36:41;;;;;;;9.57;6.65;;;6.30;99.90;;;;;;4897206;29;20025;-87
2021/11/10 00:39:07;;;;;;;7.90;6.43;;;6.30;99.90;;;;;;4895596;29;20028;-88
2021/11/10 00:41:33;;;;;;;8.50;6.35;;;6.20;99.90;;;;;;4896013;29;20020;-87
2021/11/10 00:44:02;;;;;;;8.55;6.25;;;6.20;99.90;;;;;;4895726;29;20072;-86
2021/11/10 00:46:32;;;;;;;10.02;6.40;;;6.20;99.90;;;;;;4896313;29;20028;-87
2021/11/10 00:48:58;;;;;;;11.63;7.47;;;6.20;99.90;;;;;;4894789;29;20051;-84
2021/11/10 00:51:24;;;;;;;9.95;7.47;;;6.20;99.90;;;;;;4896348;29;20021;-87
2021/11/10 00:53:50;;;;;;;11.15;6.68;;;6.10;99.90;;;;;;4895994;29;20073;-87
2021/11/10 00:56:16;;;;;;;9.23;6.63;;;6.10;99.90;;;;;;4895166;29;20083;-87
2021/11/10 00:58:42;;;;;;;8.48;6.57;;;6.10;99.90;;;;;;4896109;29;20059;-86
2021/11/10 01:01:08;;;;;;;9.85;6.93;;;6.10;99.90;;;;;;4895496;29;20055;-84
2021/11/10 01:03:34;;;;;;;9.73;6.20;;;6.10;99.90;;;;;;4897552;29;20056;-85
2021/11/10 01:05:59;;;;;;;8.60;6.18;;;6.10;99.90;;;;;;4899088;29;20031;-79
2021/11/10 01:08:26;;;;;;;10.27;7.05;;;6.00;99.90;;;;;;4899685;29;20068;-83
2021/11/10 01:10:53;;;;;;;9.93;7.05;;;6.00;99.90;;;;;;4899870;29;20033;-85
2021/11/10 01:13:20;;;;;;;9.23;6.43;;;6.00;99.90;;;;;;4899024;29;20076;-86
2021/11/10 01:15:46;;;;;;;10.30;6.40;;;6.00;99.90;;;;;;4899088;29;20476;-84
2021/11/10 01:18:11;;;;;;;8.95;6.80;;;6.00;99.90;;;;;;4899504;29;20025;-85
2021/11/10 01:20:38;;;;;;;9.50;6.63;;;5.90;99.90;;;;;;4899291;29;20373;-81
2021/11/10 01:23:04;;;;;;;7.28;6.07;;;5.90;99.90;;;;;;4899964;29;20036;-85
2021/11/10 01:25:29;;;;;;;7.82;6.40;;;5.90;99.90;;;;;;4898337;29;20029;-86
2021/11/10 01:27:55;;;;;;;8.18;5.75;;;5.90;99.90;;;;;;4900293;29;20033;-81
2021/11/10 01:30:21;;;;;;;9.15;6.70;;;5.90;99.90;;;;;;4898652;29;20552;-85
2021/11/10 01:32:48;;;;;;;8.13;6.45;;;5.90;99.90;;;;;;4899560;29;20060;-86
2021/11/10 01:35:14;;;;;;;8.73;6.88;;;5.80;99.90;;;;;;4898164;29;20029;-82
2021/11/10 01:37:40;;;;;;;10.23;6.95;;;5.80;99.90;;;;;;4899478;29;20068;-87
2021/11/10 01:40:08;;;;;;;9.32;6.20;;;5.80;99.90;;;;;;4898489;29;20483;-83
2021/11/10 01:42:37;;;;;;;9.38;7.28;;;5.80;99.90;;;;;;4898799;29;20564;-86
2021/11/10 01:45:05;;;;;;;9.60;7.38;;;5.80;99.90;;;;;;4897822;29;20024;-86
2021/11/10 01:47:31;;;;;;;10.45;7.32;;;5.70;99.90;;;;;;4899347;29;20044;-87
2021/11/10 01:49:57;;;;;;;8.98;6.93;;;5.70;99.90;;;;;;4898441;29;20051;-87
2021/11/10 01:52:22;;;;;;;8.70;6.78;;;5.70;99.90;;;;;;4898648;29;20377;-86
2021/11/10 01:54:50;;;;;;;9.88;7.05;;;5.70;99.90;;;;;;4899809;29;20052;-86
2021/11/10 01:57:16;;;;;;;8.02;6.65;;;5.60;99.90;;;;;;4898654;29;20036;-84
2021/11/10 01:59:44;;;;;;;9.45;6.80;;;5.60;99.90;;;;;;4898078;29;20119;-86
2021/11/10 02:02:19;;;;;;;9.60;6.90;;;5.60;99.90;;;;;;4898327;29;20029;-86
2021/11/10 02:04:47;;;;;;;10.25;6.97;;;5.60;99.90;;;;;;4899799;29;20369;-86
2021/11/10 02:07:13;;;;;;;9.88;6.22;;;5.60;99.90;;;;;;4897634;29;20511;-87
2021/11/10 02:09:38;;;;;;;7.90;6.07;;;5.60;99.90;;;;;;4898598;29;20493;-85
2021/11/10 02:12:05;;;;;;;8.07;6.20;;;5.60;99.90;;;;;;4898017;29;20032;-83
2021/11/10 02:14:31;;;;;;;8.82;6.22;;;5.60;99.90;;;;;;4897278;29;20028;-87
2021/11/10 02:16:57;;;;;;;8.20;6.15;;;5.50;99.90;;;;;;4897514;29;20018;-87
2021/11/10 02:19:23;;;;;;;11.25;6.72;;;5.50;99.90;;;;;;4898681;29;20025;-87
2021/11/10 02:21:52;;;;;;;9.73;7.15;;;5.50;99.90;;;;;;4897545;29;20511;-86
2021/11/10 02:24:19;;;;;;;9.05;6.30;;;5.50;99.90;;;;;;4899284;29;20036;-86
2021/11/10 02:26:46;;;;;;;9.30;6.55;;;5.50;99.90;;;;;;4898655;29;20460;-87
2021/11/10 02:29:16;;;;;;;8.88;6.65;;;5.40;99.90;;;;;;4897227;29;20058;-87
2021/11/10 02:31:44;;;;;;;9.35;7.15;;;5.40;99.90;;;;;;4898068;29;20077;-88
2021/11/10 02:34:10;;;;;;;6.82;5.85;;;5.40;99.90;;;;;;4897235;29;20039;-82
2021/11/10 02:36:36;;;;;;;9.35;6.85;;;5.40;99.90;;;;;;4897456;29;20119;-78
2021/11/10 02:39:15;;;;;;;8.13;6.22;;;5.40;99.90;;;;;;4897358;29;20035;-87
2021/11/10 02:41:41;;;;;;;7.22;5.88;;;5.40;99.90;;;;;;4897122;29;20072;-86
2021/11/10 02:44:07;;;;;;;8.63;6.28;;;5.30;99.90;;;;;;4897562;29;20081;-84
2021/11/10 02:46:36;;;;;;;10.10;6.30;;;5.30;99.90;;;;;;4897730;29;20032;-83
2021/11/10 02:49:03;;;;;;;7.38;5.80;;;5.30;99.90;;;;;;4897087;29;20072;-88
2021/11/10 02:51:29;;;;;;;9.95;6.40;;;5.30;99.90;;;;;;4897980;29;20552;-87
2021/11/10 02:53:55;;;;;;;8.82;6.30;;;5.30;99.90;;;;;;4897785;29;20031;-87
2021/11/10 02:56:21;;;;;;;8.15;6.50;;;5.30;99.90;;;;;;4898072;29;20064;-87
2021/11/10 02:58:46;;;;;;;9.25;6.20;;;5.20;99.90;;;;;;4897707;29;20025;-88
2021/11/10 03:01:12;;;;;;;7.53;6.60;;;5.20;99.90;;;;;;4898326;29;20472;-88
2021/11/10 03:03:37;;;;;;;6.53;5.85;;;5.20;99.90;;;;;;4898488;29;20115;-79
2021/11/10 03:06:03;;;;;;;10.45;6.63;;;5.20;99.90;;;;;;4898374;29;20032;-86
2021/11/10 03:08:29;;;;;;;9.55;6.63;;;5.20;99.90;;;;;;4897483;29;20519;-83
2021/11/10 03:10:55;;;;;;;9.07;7.07;;;5.20;99.90;;;;;;4898175;29;20029;-83
2021/11/10 03:13:23;;;;;;;7.30;6.10;;;5.20;99.90;;;;;;4897335;29;20021;-87
2021/11/10 03:15:49;;;;;;;7.93;5.80;;;5.10;99.90;;;;;;4896988;29;20021;-83
2021/11/10 03:18:16;;;;;;;8.05;5.78;;;5.10;99.90;;;;;;4897360;29;20556;-87
2021/11/10 03:20:42;;;;;;;7.70;5.90;;;5.10;99.90;;;;;;4897523;29;20031;-83
2021/11/10 03:23:08;;;;;;;6.75;5.70;;;5.10;99.90;;;;;;4897509;29;20100;-87
2021/11/10 03:25:34;;;;;;;8.88;6.20;;;5.10;99.90;;;;;;4898309;29;20414;-84
2021/11/10 03:28:01;;;;;;;6.47;5.45;;;5.10;99.90;;;;;;4897706;29;20088;-83
2021/11/10 03:30:27;;;;;;;7.40;6.05;;;5.10;99.90;;;;;;4896636;29;20032;-84
2021/11/10 03:32:55;;;;;;;9.70;6.80;;;5.00;99.90;;;;;;4896909;29;20024;-84
2021/11/10 03:35:24;;;;;;;6.10;5.35;;;5.00;99.90;;;;;;4896781;29;20025;-85
2021/11/10 03:37:50;;;;;;;7.43;6.05;;;5.00;99.90;;;;;;4897627;29;20036;-82
2021/11/10 03:40:16;;;;;;;7.85;5.93;;;5.00;99.90;;;;;;4896157;29;20417;-85
2021/11/10 03:42:42;;;;;;;7.70;6.15;;;5.00;99.90;;;;;;4896641;29;20036;-88
2021/11/10 03:45:10;;;;;;;9.15;5.95;;;5.00;99.90;;;;;;4896807;29;20039;-87
2021/11/10 03:47:36;;;;;;;8.48;6.55;;;5.00;99.90;;;;;;4898126;29;20488;-87
2021/11/10 03:50:03;;;;;;;8.23;6.40;;;4.90;99.90;;;;;;4897307;29;20024;-80
2021/11/10 03:52:28;;;;;;;7.50;5.70;;;4.90;99.90;;;;;;4897424;29;20490;-85
2021/11/10 03:54:54;;;;;;;8.10;5.95;;;5.00;99.90;;;;;;4896493;29;20052;-88
2021/11/10 03:57:19;;;;;;;7.38;5.63;;;4.90;99.90;;;;;;4897277;29;20083;-83
2021/11/10 03:59:45;;;;;;;8.35;5.60;;;4.90;99.90;;;;;;4896987;29;20036;-85
2021/11/10 04:02:11;;;;;;;8.27;6.28;;;4.90;99.90;;;;;;4897657;29;20131;-82
2021/11/10 04:04:37;;;;;;;7.55;5.80;;;4.90;99.90;;;;;;4896877;29;20023;-84
2021/11/10 04:07:02;;;;;;;8.80;6.18;;;4.90;99.90;;;;;;4895862;29;20540;-83
2021/11/10 04:09:28;;;;;;;8.05;6.05;;;4.90;99.90;;;;;;4897664;29;20118;-88
2021/11/10 04:11:54;;;;;;;9.73;6.80;;;4.80;99.90;;;;;;4896812;29;20500;-86
2021/11/10 04:14:20;;;;;;;8.18;5.95;;;4.90;99.90;;;;;;4896650;29;20040;-88
2021/11/10 04:16:45;;;;;;;8.52;6.22;;;4.80;99.90;;;;;;4897373;29;20035;-88
2021/11/10 04:19:11;;;;;;;5.78;5.18;;;4.80;99.90;;;;;;4897485;29;20028;-87
2021/11/10 04:21:37;;;;;;;6.82;5.68;;;4.80;99.90;;;;;;4897417;29;20516;-86
2021/11/10 04:24:05;;;;;;;6.97;5.47;;;4.80;99.90;;;;;;4897366;29;20029;-89
2021/11/10 04:26:36;;;;;;;8.18;6.50;;;4.80;99.90;;;;;;4897120;29;20107;-88
2021/11/10 04:29:03;;;;;;;8.32;6.05;;;4.80;99.90;;;;;;4895704;29;20486;-84
2021/11/10 04:31:29;;;;;;;9.05;5.93;;;4.80;99.90;;;;;;4897300;29;20385;-90
2021/11/10 04:33:57;;;;;;;6.43;5.35;;;4.70;99.90;;;;;;4897220;29;20032;-84
2021/11/10 04:36:25;;;;;;;7.88;6.15;;;4.80;99.90;;;;;;4881099;29;20067;-80
2021/11/10 04:38:51;;;;;;;6.25;5.50;;;4.70;99.90;;;;;;4873232;29;20029;-88
2021/11/10 04:41:18;;;;;;;8.48;6.38;;;4.70;99.90;;;;;;4875315;29;20029;-89
2021/11/10 04:43:43;;;;;;;7.38;5.50;;;4.70;99.90;;;;;;4900517;29;20031;-89
2021/11/10 04:46:16;;;;;;;8.75;6.10;;;4.70;99.90;;;;;;4900473;29;20036;-85
2021/11/10 04:48:42;;;;;;;7.85;5.93;;;4.70;99.90;;;;;;4883187;29;20037;-86
2021/11/10 04:51:09;;;;;;;7.43;6.13;;;4.60;99.90;;;;;;4882449;29;20021;-85
2021/11/10 04:53:36;;;;;;;7.95;6.05;;;4.60;99.90;;;;;;4901068;29;20029;-87
2021/11/10 04:56:03;;;;;;;7.20;5.57;;;4.60;99.90;;;;;;4899604;29;20040;-87
2021/11/10 04:58:29;;;;;;;8.40;7.10;;;4.60;99.90;;;;;;4884199;29;20033;-85
2021/11/10 05:00:55;;;;;;;7.35;5.85;;;4.60;99.90;;;;;;4901035;29;20564;-89
2021/11/10 05:03:20;;;;;;;7.30;5.75;;;4.60;99.90;;;;;;4900285;29;20051;-88
2021/11/10 05:05:46;;;;;;;7.80;6.53;;;4.60;99.90;;;;;;4883771;29;20021;-78
2021/11/10 05:08:12;;;;;;;8.88;6.07;;;4.60;99.90;;;;;;4883575;29;20036;-76
2021/11/10 05:10:37;;;;;;;11.23;6.40;;;4.50;99.90;;;;;;4883416;29;20013;-80
2021/11/10 05:13:03;;;;;;;10.43;6.32;;;4.50;99.90;;;;;;4900156;29;20044;-77
2021/11/10 05:15:29;;;;;;;9.90;6.70;;;4.60;99.90;;;;;;4883339;29;20021;-80
2021/11/10 05:17:55;;;;;;;7.65;5.68;;;4.50;99.90;;;;;;4882746;29;20075;-82
2021/11/10 05:20:20;;;;;;;7.95;6.30;;;4.50;99.90;;;;;;4883569;29;20025;-85
2021/11/10 05:22:46;;;;;;;6.93;5.78;;;4.50;99.90;;;;;;4883084;29;20056;-76
2021/11/10 05:25:11;;;;;;;7.32;5.75;;;4.50;99.90;;;;;;4883104;29;20024;-88
2021/11/10 05:27:37;;;;;;;6.70;6.00;;;4.50;99.90;;;;;;4900180;29;20036;-76
2021/11/10 05:30:05;;;;;;;7.30;6.15;;;4.50;99.90;;;;;;4882789;29;20033;-80
2021/11/10 05:32:31;;;;;;;8.18;6.40;;;4.50;99.90;;;;;;4883434;29;20024;-83
2021/11/10 05:34:58;;;;;;;9.75;6.55;;;4.40;99.90;;;;;;4899951;29;20036;-84
2021/11/10 05:37:26;;;;;;;9.45;6.40;;;4.40;99.90;;;;;;4900127;29;20049;-85
2021/11/10 05:39:52;;;;;;;8.13;5.97;;;4.40;99.90;;;;;;4883158;29;20025;-76
2021/11/10 05:42:17;;;;;;;9.50;6.55;;;4.40;99.90;;;;;;4883018;29;20031;-75
2021/11/10 05:44:43;;;;;;;7.78;6.32;;;4.40;99.90;;;;;;4898405;29;20033;-79
2021/11/10 05:47:09;;;;;;;7.90;5.65;;;4.40;99.90;;;;;;4893500;29;20029;-82
2021/11/10 05:49:36;;;;;;;8.95;7.10;;;4.40;99.90;;;;;;4892994;29;20027;-82
2021/11/10 05:52:02;;;;;;;8.75;6.57;;;4.40;99.90;;;;;;4895105;29;20025;-87
2021/11/10 05:54:28;;;;;;;9.05;6.35;;;4.30;99.90;;;;;;4866793;29;20025;-84
2021/11/10 05:56:53;;;;;;;8.35;6.25;;;4.30;99.90;;;;;;4896342;29;20049;-88
2021/11/10 05:59:20;;;;;;;9.20;6.32;;;4.30;99.90;;;;;;4872554;29;20043;-85
2021/11/10 06:01:46;;;;;;;7.63;5.72;;;4.30;99.90;;;;;;4882550;29;20024;-88
2021/11/10 06:04:12;;;;;;;10.25;6.30;;;4.30;99.90;;;;;;4899617;29;20036;-77
2021/11/10 06:06:39;;;;;;;9.02;6.30;;;4.30;99.90;;;;;;4899187;29;20481;-78
2021/11/10 06:09:05;;;;;;;7.03;6.32;;;4.30;99.90;;;;;;4882462;29;20037;-78
2021/11/10 06:11:31;;;;;;;8.55;6.88;;;4.30;99.90;;;;;;4898746;29;20029;-82
2021/11/10 06:13:56;;;;;;;8.07;6.38;;;4.30;99.90;;;;;;4882115;29;20035;-83
2021/11/10 06:16:22;;;;;;;8.15;6.90;;;4.30;99.90;;;;;;4913945;29;20031;-80
2021/11/10 06:18:48;;;;;;;7.80;6.28;;;4.30;99.90;;;;;;4890928;29;20040;-83
2021/11/10 06:21:14;;;;;;;8.48;6.75;;;4.30;99.90;;;;;;4881795;29;20070;-78
2021/11/10 06:23:39;;;;;;;10.60;7.55;;;4.30;99.90;;;;;;4882305;29;20045;-78
2021/11/10 06:26:05;;;;;;;11.05;7.30;;;4.30;99.90;;;;;;4881649;29;20049;-89
2021/11/10 06:28:31;;;;;;;10.20;7.80;;;4.30;99.90;;;;;;4898191;29;20453;-84
2021/11/10 06:30:57;;;;;;;12.90;7.25;;;4.20;99.90;;;;;;4890303;29;20032;-78
2021/11/10 06:33:22;;;;;;;11.20;7.25;;;4.30;99.90;;;;;;4914613;29;20063;-80
2021/11/10 06:35:48;;;;;;;10.20;7.38;;;4.30;99.90;;;;;;4881936;29;20037;-80
2021/11/10 06:38:14;;;;;;;10.00;7.72;;;4.20;99.90;;;;;;4881864;29;20503;-81
2021/11/10 06:40:40;;;;;;;7.63;5.93;;;4.20;99.90;;;;;;4879135;29;20039;-86
2021/11/10 06:43:06;;;;;;;8.82;7.38;;;4.20;99.90;;;;;;4881933;29;20571;-75
2021/11/10 06:45:32;;;;;;;8.48;6.38;;;4.20;99.90;;;;;;4892481;29;20036;-79
2021/11/10 06:47:58;;;;;;;8.65;6.50;;;4.20;99.90;;;;;;4878915;29;20047;-82
2021/11/10 06:50:24;;;;;;;6.45;5.78;;;4.20;99.90;;;;;;4884002;29;22200;-90
2021/11/10 06:52:49;;;;;;;8.43;6.43;;;4.20;99.90;;;;;;4899657;29;20028;-84
2021/11/10 06:55:16;;;;;;;6.88;6.18;;;4.20;99.90;;;;;;4897005;29;20052;-84
2021/11/10 06:57:41;;;;;;;7.32;6.55;;;4.10;99.90;;;;;;4898721;29;20441;-83
2021/11/10 07:00:11;;;;;;;9.90;6.40;;;4.10;99.90;;;;;;4893483;29;20056;-80
2021/11/10 07:02:36;;;;;;;8.70;6.85;;;4.20;99.90;;;;;;4896785;29;20131;-83
2021/11/10 07:05:03;;;;;;;8.05;6.32;;;4.20;99.90;;;;;;4886458;29;20112;-83
2021/11/10 07:07:29;;;;;;;8.52;6.57;;;4.20;99.90;;;;;;4881209;29;20111;-87
2021/11/10 07:09:54;;;;;;;7.40;6.35;;;4.20;99.90;;;;;;4896561;29;20032;-80
2021/11/10 07:12:20;;;;;;;10.07;6.90;;;4.20;99.90;;;;;;4880243;29;20032;-80
2021/11/10 07:14:45;;;;;;;8.32;6.72;;;4.20;99.90;;;;;;4891846;29;20032;-85
2021/11/10 07:17:11;;;;;;;8.55;6.53;;;4.20;99.90;;;;;;4907850;29;20032;-83
2021/11/10 07:19:37;;;;;;;11.32;7.13;;;4.20;99.90;;;;;;4892733;29;20701;-88
2021/11/10 07:22:02;;;;;;;9.43;7.00;;;4.20;99.90;;;;;;4897714;29;20036;-83
2021/11/10 07:24:29;;;;;;;8.25;6.72;;;4.30;99.90;;;;;;4899400;29;20028;-81
2021/11/10 07:26:56;;;;;;;10.52;7.78;;;4.30;99.90;;;;;;4899579;29;20480;-76
2021/11/10 07:29:22;;;;;;;9.05;7.13;;;4.30;99.90;;;;;;4915931;29;20076;-79
2021/11/10 07:31:48;;;;;;;8.68;7.00;;;4.30;99.90;;;;;;4880010;29;20032;-74
2021/11/10 15:47:06;;;;;;;15.90;11.73;;;10.80;99.90;;;;;;5532541;23;20052;-72
2021/11/10 15:49:31;;;;;;;16.00;12.13;;;10.70;99.90;;;;;;4895769;29;20036;-72
2021/11/10 15:51:57;;;;;;;17.70;13.23;;;10.70;99.90;;;;;;4895008;29;20028;-73
2021/11/10 15:54:22;;;;;;;21.55;14.40;;;10.70;99.90;;;;;;4911737;29;20331;-74
2021/11/10 15:56:48;;;;;;;21.52;14.02;;;10.70;99.90;;;;;;4912881;29;20028;-73
2021/11/10 15:59:14;;;;;;;16.65;12.95;;;10.60;99.90;;;;;;4908262;29;20043;-73
2021/11/10 16:01:39;;;;;;;18.42;13.52;;;10.60;99.90;;;;;;4892447;29;20061;-73
2021/11/10 16:04:10;;;;;;;16.60;12.35;;;10.60;99.90;;;;;;4895054;29;20036;-74
2021/11/10 16:06:37;;;;;;;14.55;11.70;;;10.60;99.90;;;;;;4876211;29;20047;-72
2021/11/10 16:09:05;;;;;;;17.38;12.75;;;10.60;99.90;;;;;;4889454;29;20095;-72
2021/11/10 16:11:31;;;;;;;18.48;13.95;;;10.60;99.90;;;;;;4883972;29;20037;-70
2021/11/10 16:13:56;;;;;;;16.80;13.32;;;10.60;99.90;;;;;;4876246;29;20029;-72
2021/11/10 16:16:24;;;;;;;16.70;12.85;;;10.60;99.90;;;;;;4891225;29;20095;-74
2021/11/10 16:18:51;;;;;;;15.38;12.10;;;10.60;99.90;;;;;;4875739;29;20033;-72
2021/11/10 16:21:16;;;;;;;14.85;12.52;;;10.60;99.90;;;;;;4892746;29;20033;-72
2021/11/10 16:23:42;;;;;;;15.35;12.55;;;10.50;99.90;;;;;;4892537;29;20033;-72
2021/11/10 16:26:08;;;;;;;16.73;12.77;;;10.60;99.90;;;;;;4892152;29;20039;-72
2021/11/10 16:28:44;;;;;;;17.80;13.07;;;10.50;99.90;;;;;;4887248;29;20056;-72
2021/11/10 16:31:24;;;;;;;15.73;11.88;;;10.60;99.90;;;;;;4873400;29;20060;-72
2021/11/10 16:33:50;;;;;;;14.93;12.02;;;10.60;99.90;;;;;;4874607;29;20029;-72
2021/11/10 16:36:18;;;;;;;14.95;11.95;;;10.50;99.90;;;;;;4877205;29;20033;-72
2021/11/10 16:38:44;;;;;;;15.50;11.98;;;10.50;99.90;;;;;;4876454;29;20072;-72
2021/11/10 16:41:11;;;;;;;15.30;12.65;;;10.50;99.90;;;;;;4870240;29;20024;-72
2021/11/10 16:43:37;;;;;;;17.35;12.20;;;10.50;99.90;;;;;;4878632;29;20024;-74
2021/11/10 16:46:04;;;;;;;15.98;12.60;;;10.50;99.90;;;;;;4879527;29;20096;-74
2021/11/10 16:48:30;;;;;;;17.13;11.65;;;10.50;99.90;;;;;;4908455;29;20064;-74
2021/11/10 16:50:57;;;;;;;14.02;11.93;;;10.50;99.90;;;;;;4909288;29;20032;-74
2021/11/10 16:53:23;;;;;;;16.13;12.02;;;10.50;99.90;;;;;;4909280;29;20029;-73
2021/11/10 16:55:51;;;;;;;16.35;13.02;;;10.50;99.90;;;;;;4893719;29;20032;-73
2021/11/10 16:58:32;;;;;;;18.58;13.13;;;10.50;99.90;;;;;;4913783;29;20032;-73
2021/11/10 17:00:58;;;;;;;15.43;11.60;;;10.50;99.90;;;;;;4897615;29;20089;-74
2021/11/10 17:03:24;;;;;;;13.98;11.20;;;10.40;99.90;;;;;;4889320;29;20035;-74
2021/11/10 17:05:53;;;;;;;14.35;11.30;;;10.40;99.90;;;;;;4890004;29;20038;-74
2021/11/10 17:08:20;;;;;;;14.57;11.73;;;10.40;99.90;;;;;;4892512;29;20136;-74
2021/11/10 17:10:46;;;;;;;13.77;11.50;;;10.40;99.90;;;;;;4904752;29;20452;-72
2021/11/10 17:13:14;;;;;;;13.85;12.15;;;10.40;99.90;;;;;;4914759;29;20028;-72
2021/11/10 17:15:43;;;;;;;16.33;12.23;;;10.40;99.90;;;;;;4900608;29;20024;-73
2021/11/10 17:18:10;;;;;;;13.93;11.50;;;10.40;99.90;;;;;;4896119;29;20107;-72
2021/11/10 17:20:35;;;;;;;16.40;12.40;;;10.40;99.90;;;;;;4895821;29;20025;-74
2021/11/10 17:23:01;;;;;;;15.10;12.38;;;10.40;99.90;;;;;;4877885;29;20021;-74
2021/11/10 17:25:27;;;;;;;14.05;11.32;;;10.40;99.90;;;;;;4895606;29;20028;-74
2021/11/10 17:27:52;;;;;;;13.95;10.88;;;10.40;99.90;;;;;;4892553;29;20043;-74
2021/11/10 17:30:18;;;;;;;17.85;12.77;;;10.40;99.90;;;;;;4897426;29;20072;-73
2021/11/10 17:32:44;;;;;;;14.35;12.20;;;10.40;99.90;;;;;;4914228;29;20078;-73
2021/11/10 17:35:13;;;;;;;16.88;12.65;;;10.40;99.90;;;;;;4914341;29;20036;-73
2021/11/10 17:37:39;;;;;;;14.95;11.93;;;10.40;99.90;;;;;;4897367;29;20114;-73
2021/11/10 17:40:13;;;;;;;24.67;13.63;;;10.30;99.90;;;;;;4890346;29;20081;-73
2021/11/10 17:42:39;;;;;;;16.15;13.25;;;10.30;99.90;;;;;;4899786;29;20535;-73
2021/11/10 17:45:08;;;;;;;16.17;12.50;;;10.30;99.90;;;;;;4914185;29;20030;-73
2021/11/10 17:47:35;;;;;;;21.20;14.40;;;10.30;99.90;;;;;;4913895;29;20066;-74
2021/11/10 17:50:07;;;;;;;16.27;12.50;;;10.30;99.90;;;;;;4896969;29;20036;-74
2021/11/10 17:52:33;;;;;;;13.48;12.07;;;10.30;99.90;;;;;;4914348;29;20377;-72
2021/11/10 17:55:00;;;;;;;14.75;11.05;;;10.30;99.90;;;;;;4889717;29;20115;-72
2021/11/10 17:57:27;;;;;;;14.23;11.57;;;10.30;99.90;;;;;;4895827;29;20449;-73
2021/11/10 17:59:52;;;;;;;13.82;11.70;;;10.30;99.90;;;;;;4895203;29;20064;-73
2021/11/10 18:02:18;;;;;;;13.75;12.35;;;10.30;99.90;;;;;;4894083;29;20032;-73
2021/11/10 18:04:44;;;;;;;14.20;11.70;;;10.30;99.90;;;;;;4877860;29;20108;-73
2021/11/10 18:07:10;;;;;;;21.40;15.30;;;10.30;99.90;;;;;;4877785;29;20039;-73
2021/11/10 18:09:37;;;;;;;16.85;13.55;;;10.30;99.90;;;;;;4893361;29;20095;-72
2021/11/10 18:12:04;;;;;;;16.38;11.88;;;10.30;99.90;;;;;;4894354;29;20063;-75
2021/11/10 18:14:30;;;;;;;19.38;12.60;;;10.30;99.90;;;;;;4894242;29;20044;-72
2021/11/10 18:16:55;;;;;;;14.93;10.65;;;10.20;99.90;;;;;;4886721;29;20538;-75
2021/11/10 18:19:22;;;;;;;12.65;10.65;;;10.30;99.90;;;;;;4883273;29;20036;-75
2021/11/10 18:21:47;;;;;;;15.80;11.73;;;10.30;99.90;;;;;;4890725;29;20505;-76
2021/11/10 18:24:13;;;;;;;14.90;12.40;;;10.30;99.90;;;;;;4893742;29;20053;-76
2021/11/10 18:26:39;;;;;;;14.70;11.82;;;10.20;99.90;;;;;;4883830;29;20032;-78
2021/11/10 18:29:04;;;;;;;15.55;11.68;;;10.30;99.90;;;;;;4893868;29;20039;-74
2021/11/10 18:31:30;;;;;;;16.85;11.27;;;10.30;99.90;;;;;;4894831;29;20024;-73
2021/11/10 18:33:57;;;;;;;14.23;11.15;;;10.30;99.90;;;;;;4877360;29;20036;-75
2021/11/10 18:36:23;;;;;;;14.07;11.43;;;10.30;99.90;;;;;;4875731;29;20025;-73
2021/11/10 18:38:49;;;;;;;19.05;12.48;;;10.30;99.90;;;;;;4894151;29;20063;-81
2021/11/10 18:41:17;;;;;;;13.75;11.55;;;10.30;99.90;;;;;;4894639;29;20383;-82
2021/11/10 18:43:42;;;;;;;16.33;12.50;;;10.30;99.90;;;;;;4893752;29;20036;-83
2021/11/10 18:46:08;;;;;;;17.05;13.52;;;10.20;99.90;;;;;;4893924;29;20035;-86
2021/11/10 18:48:35;;;;;;;21.58;15.18;;;10.20;99.90;;;;;;4876911;29;20056;-84
2021/11/10 18:51:01;;;;;;;22.00;14.63;;;10.20;99.90;;;;;;4892502;29;20104;-75
2021/11/10 18:53:27;;;;;;;19.33;14.32;;;10.20;99.90;;;;;;4893192;29;20120;-76
2021/11/10 18:56:01;;;;;;;18.52;12.82;;;10.20;99.90;;;;;;4893642;29;20112;-79
2021/11/10 18:58:36;;;;;;;27.45;13.93;;;10.20;99.90;;;;;;4876505;29;20080;-75
2021/11/10 19:01:08;;;;;;;16.58;13.55;;;10.20;99.90;;;;;;4871293;29;20020;-73
2021/11/10 19:03:35;;;;;;;17.30;13.93;;;10.20;99.90;;;;;;4887348;29;20068;-72
2021/11/10 19:06:13;;;;;;;20.52;14.10;;;10.10;99.90;;;;;;4892478;29;20041;-73
2021/11/10 19:11:31;;;;;;;17.13;12.88;;;10.10;99.90;;;;;;4911937;29;20048;-73
2021/11/10 19:21:45;;;;;;;19.70;13.32;;;10.10;99.90;;;;;;4892206;29;20036;-72
2021/11/10 19:24:12;;;;;;;17.48;12.15;;;10.10;99.90;;;;;;4893642;29;20437;-73
2021/11/10 19:26:43;;;;;;;15.88;12.27;;;10.20;99.90;;;;;;4891965;29;20029;-73
2021/11/10 19:29:09;;;;;;;16.80;12.80;;;10.20;99.90;;;;;;4876319;29;20041;-73
2021/11/10 19:31:34;;;;;;;15.50;12.50;;;10.20;99.90;;;;;;4875423;29;20032;-73
2021/11/10 19:34:02;;;;;;;17.90;14.27;;;10.20;99.90;;;;;;4892979;29;20035;-74
2021/11/10 19:36:28;;;;;;;19.00;13.13;;;10.10;99.90;;;;;;4895892;29;20385;-73
2021/11/10 19:38:55;;;;;;;17.10;13.77;;;10.10;99.90;;;;;;4894118;29;20606;-73
2021/11/10 19:41:22;;;;;;;17.90;12.95;;;10.10;99.90;;;;;;4895243;29;20041;-74
2021/11/10 19:43:49;;;;;;;19.20;13.80;;;10.10;99.90;;;;;;4896046;29;20071;-73
2021/11/10 19:46:15;;;;;;;21.73;12.88;;;10.10;99.90;;;;;;4878671;29;20111;-73
2021/11/10 19:48:41;;;;;;;20.73;12.57;;;10.10;99.90;;;;;;4912218;29;20187;-73
2021/11/10 19:51:07;;;;;;;17.23;13.90;;;10.10;99.90;;;;;;4897821;29;20039;-74
2021/11/10 19:53:33;;;;;;;14.57;12.10;;;10.10;99.90;;;;;;4900823;29;20111;-73
2021/11/10 19:56:03;;;;;;;21.65;14.65;;;10.10;99.90;;;;;;4885958;29;20176;-73
2021/11/10 19:58:36;;;;;;;22.48;15.50;;;10.10;99.90;;;;;;4898528;29;20495;-73
2021/11/10 20:01:04;;;;;;;20.25;15.07;;;10.10;99.90;;;;;;4895839;29;20116;-73
2021/11/10 20:03:30;;;;;;;18.13;14.38;;;10.10;99.90;;;;;;4896663;29;20040;-73
2021/11/10 20:05:55;;;;;;;17.52;13.88;;;10.10;99.90;;;;;;4896449;29;20029;-72
2021/11/10 20:08:23;;;;;;;20.73;14.60;;;10.10;99.90;;;;;;4899308;29;20421;-73
2021/11/10 20:10:49;;;;;;;18.70;13.35;;;10.10;99.90;;;;;;4915868;29;20429;-74
2021/11/10 20:13:15;;;;;;;18.60;13.57;;;10.10;99.90;;;;;;4915789;29;20377;-73
2021/11/10 20:15:41;;;;;;;18.65;13.80;;;10.10;99.90;;;;;;4898059;29;20055;-73
2021/11/10 20:18:07;;;;;;;24.15;14.63;;;10.20;99.90;;;;;;4914866;29;20099;-74
2021/11/10 20:20:33;;;;;;;19.90;14.25;;;10.10;99.90;;;;;;4897701;29;20183;-74
2021/11/10 20:23:00;;;;;;;21.33;13.93;;;10.10;99.90;;;;;;4898918;29;20076;-74
2021/11/10 20:25:27;;;;;;;21.10;14.70;;;10.10;99.90;;;;;;4896322;29;20113;-73
2021/11/10 20:27:54;;;;;;;24.90;15.48;;;10.10;99.90;;;;;;4894949;29;20035;-73
2021/11/10 20:30:29;;;;;;;23.90;16.42;;;10.10;99.90;;;;;;4895056;29;20032;-73
2021/11/10 20:32:57;;;;;;;25.00;16.70;;;10.10;99.90;;;;;;4896374;29;20031;-74
2021/11/10 20:35:23;;;;;;;28.65;16.90;;;10.10;99.90;;;;;;4879330;29;20039;-73
2021/11/10 20:37:50;;;;;;;26.45;15.90;;;10.10;99.90;;;;;;4896175;29;20024;-74
2021/11/10 20:40:18;;;;;;;25.60;15.27;;;10.00;99.90;;;;;;4879417;29;20032;-73
2021/11/10 20:42:44;;;;;;;26.40;15.80;;;10.00;99.90;;;;;;4895766;29;20520;-74
2021/11/10 20:45:13;;;;;;;27.38;16.08;;;10.00;99.90;;;;;;4879118;29;20115;-75
2021/11/10 20:47:39;;;;;;;32.13;18.83;;;9.90;99.90;;;;;;4903747;29;20514;-73
2021/11/10 20:50:06;;;;;;;27.98;18.70;;;9.90;99.90;;;;;;4914174;29;20485;-74
2021/11/10 20:52:32;;;;;;;27.13;16.55;;;9.80;99.90;;;;;;4915061;29;20040;-73
2021/11/10 20:54:57;;;;;;;27.77;16.38;;;9.80;99.90;;;;;;4914575;29;20032;-73
2021/11/10 20:57:23;;;;;;;23.92;15.05;;;9.80;99.90;;;;;;4897394;29;20111;-74
2021/11/10 20:59:50;;;;;;;21.52;15.48;;;9.80;99.90;;;;;;4914801;29;20473;-73
2021/11/10 21:02:17;;;;;;;22.92;15.40;;;9.80;99.90;;;;;;4897786;29;20035;-73